createdAt,value
2022-08-19T00:01:30.250Z,18.48
2022-08-19T00:04:04.462Z,18.45
2022-08-19T00:06:31.271Z,18.39
2022-08-19T00:09:01.167Z,18.30
2022-08-19T00:11:28.967Z,18.27
2022-08-19T00:13:58.186Z,18.33
2022-08-19T00:16:26.937Z,18.27
2022-08-19T00:18:56.312Z,18.24
2022-08-19T00:21:25.870Z,18.27
2022-08-19T00:23:52.981Z,18.30
2022-08-19T00:26:20.387Z,18.33
2022-08-19T00:28:50.282Z,18.39
2022-08-19T00:31:17.196Z,18.41
2022-08-19T00:33:44.046Z,18.36
2022-08-19T00:36:11.293Z,18.48
2022-08-19T00:38:42.276Z,18.45
2022-08-19T00:41:10.348Z,18.53
2022-08-19T00:43:37.077Z,18.45
2022-08-19T00:46:05.767Z,18.33
2022-08-19T00:48:34.774Z,18.21
2022-08-19T00:51:02.601Z,18.33
2022-08-19T00:53:32.662Z,18.30
2022-08-19T00:56:01.951Z,18.24
2022-08-19T00:58:33.179Z,18.20
2022-08-19T01:01:00.789Z,18.18
2022-08-19T01:03:27.504Z,18.18
2022-08-19T01:05:56.295Z,18.07
2022-08-19T01:08:23.524Z,18.02
2022-08-19T01:10:57.463Z,18.06
2022-08-19T01:13:27.630Z,18.04
2022-08-19T01:16:06.387Z,18.11
2022-08-19T01:18:36.377Z,18.02
2022-08-19T01:21:10.210Z,18.06
2022-08-19T01:23:45.376Z,18.12
2022-08-19T01:26:19.078Z,18.01
2022-08-19T01:28:47.692Z,18.13
2022-08-19T01:31:26.872Z,18.16
2022-08-19T01:33:56.955Z,18.11
2022-08-19T01:36:30.030Z,18.09
2022-08-19T01:38:59.052Z,18.19
2022-08-19T01:41:25.503Z,18.06
2022-08-19T01:44:03.238Z,18.09
2022-08-19T01:46:40.919Z,18.04
2022-08-19T01:49:09.275Z,18.08
2022-08-19T01:51:39.755Z,18.18
2022-08-19T01:54:08.025Z,18.19
2022-08-19T01:56:34.512Z,18.17
2022-08-19T01:59:09.470Z,18.13
2022-08-19T02:01:36.239Z,18.13
2022-08-19T02:04:04.073Z,18.11
2022-08-19T02:06:33.480Z,18.06
2022-08-19T02:09:00.721Z,18.14
2022-08-19T02:11:34.335Z,18.17
2022-08-19T02:14:03.766Z,18.19
2022-08-19T02:16:31.638Z,18.16
2022-08-19T02:19:01.425Z,18.18
2022-08-19T02:21:29.930Z,18.23
2022-08-19T02:24:00.165Z,18.08
2022-08-19T02:26:27.599Z,18.22
2022-08-19T02:28:55.484Z,18.22
2022-08-19T02:31:25.724Z,18.14
2022-08-19T02:33:56.812Z,18.36
2022-08-19T02:36:30.350Z,18.34
2022-08-19T02:38:58.141Z,18.45
2022-08-19T02:41:28.747Z,18.40
2022-08-19T02:44:29.967Z,18.37
2022-08-19T02:46:49.607Z,18.37
2022-08-19T02:49:18.896Z,18.37
2022-08-19T02:51:47.414Z,18.27
2022-08-19T02:54:14.933Z,18.31
2022-08-19T02:56:43.330Z,18.37
2022-08-19T02:59:11.415Z,18.47
2022-08-19T03:01:41.423Z,18.56
2022-08-19T03:04:09.703Z,18.61
2022-08-19T03:06:42.609Z,18.72
2022-08-19T03:09:11.595Z,18.67
2022-08-19T03:11:39.702Z,18.76
2022-08-19T03:14:09.200Z,18.73
2022-08-19T03:16:45.768Z,18.80
2022-08-19T03:19:13.572Z,18.79
2022-08-19T03:21:40.118Z,18.78
2022-08-19T03:24:11.641Z,18.81
2022-08-19T03:26:59.642Z,18.85
2022-08-19T03:29:30.945Z,18.90
2022-08-19T03:32:01.677Z,18.84
2022-08-19T03:34:32.019Z,18.81
2022-08-19T03:37:04.412Z,18.62
2022-08-19T03:39:31.142Z,18.75
2022-08-19T03:42:38.433Z,18.73
2022-08-19T03:44:49.743Z,18.73
2022-08-19T03:47:19.691Z,18.72
2022-08-19T03:49:53.368Z,18.71
2022-08-19T03:52:20.357Z,18.72
2022-08-19T03:54:48.569Z,18.70
2022-08-19T03:57:16.121Z,18.74
2022-08-19T03:59:46.536Z,18.67
2022-08-19T04:02:13.809Z,18.60
2022-08-19T04:04:44.021Z,18.64
2022-08-19T04:07:13.044Z,18.62
2022-08-19T04:09:39.536Z,18.66
2022-08-19T04:12:06.772Z,18.75
2022-08-19T04:14:34.739Z,18.83
2022-08-19T04:17:04.517Z,18.96
2022-08-19T04:19:35.777Z,19.02
2022-08-19T04:22:04.242Z,19.07
2022-08-19T04:24:34.877Z,19.15
2022-08-19T04:27:03.816Z,19.16
2022-08-19T04:29:31.176Z,19.23
2022-08-19T04:31:59.775Z,19.28
2022-08-19T04:34:29.584Z,19.31
2022-08-19T04:36:58.569Z,19.31
2022-08-19T04:39:49.302Z,19.31
2022-08-19T04:42:37.260Z,19.38
2022-08-19T04:45:05.513Z,19.41
2022-08-19T04:47:47.857Z,19.51
2022-08-19T04:50:24.488Z,19.50
2022-08-19T04:52:53.418Z,19.54
2022-08-19T04:55:20.831Z,19.57
2022-08-19T04:57:47.938Z,19.62
2022-08-19T05:00:14.489Z,19.67
2022-08-19T05:02:43.313Z,19.73
2022-08-19T05:05:09.970Z,19.76
2022-08-19T05:07:37.202Z,19.84
2022-08-19T05:10:06.131Z,19.80
2022-08-19T05:12:32.563Z,19.94
2022-08-19T05:15:03.312Z,20.02
2022-08-19T05:17:33.578Z,20.04
2022-08-19T05:20:24.859Z,20.17
2022-08-19T05:22:51.822Z,20.19
2022-08-19T05:25:21.297Z,20.21
2022-08-19T05:27:49.865Z,20.34
2022-08-19T05:30:17.643Z,20.40
2022-08-19T05:32:44.361Z,20.33
2022-08-19T05:35:12.662Z,20.39
2022-08-19T05:37:41.322Z,20.46
2022-08-19T05:40:09.554Z,20.56
2022-08-19T05:42:36.077Z,20.48
2022-08-19T05:45:02.727Z,20.46
2022-08-19T05:47:29.181Z,20.56
2022-08-19T05:49:55.781Z,20.59
2022-08-19T05:52:25.801Z,20.61
2022-08-19T05:54:55.649Z,20.60
2022-08-19T05:57:22.502Z,20.65
2022-08-19T05:59:53.292Z,20.74
2022-08-19T06:02:26.329Z,20.78
2022-08-19T06:04:53.979Z,20.85
2022-08-19T06:07:20.659Z,21.02
2022-08-19T06:09:59.181Z,21.05
2022-08-19T06:12:35.659Z,21.11
2022-08-19T06:15:11.602Z,21.02
2022-08-19T06:17:42.579Z,21.05
2022-08-19T06:20:16.916Z,20.98
2022-08-19T06:22:46.509Z,21.15
2022-08-19T06:25:15.163Z,21.19
2022-08-19T06:27:58.942Z,21.28
2022-08-19T06:30:30.587Z,21.37
2022-08-19T06:32:57.555Z,21.51
2022-08-19T06:35:24.046Z,21.56
2022-08-19T06:37:50.821Z,21.71
2022-08-19T06:40:17.291Z,21.80
2022-08-19T06:42:54.462Z,21.80
2022-08-19T06:45:24.820Z,21.95
2022-08-19T06:47:55.245Z,22.14
2022-08-19T06:50:21.960Z,22.27
2022-08-19T06:52:52.016Z,22.57
2022-08-19T06:55:19.734Z,22.81
2022-08-19T06:57:46.477Z,22.67
2022-08-19T07:00:16.023Z,22.93
2022-08-19T07:02:49.793Z,23.27
2022-08-19T07:05:24.034Z,23.49
2022-08-19T07:07:50.983Z,23.27
2022-08-19T07:10:17.831Z,22.98
2022-08-19T07:12:45.299Z,23.08
2022-08-19T07:15:13.072Z,23.04
2022-08-19T07:17:40.255Z,23.03
2022-08-19T07:20:09.983Z,23.17
2022-08-19T07:22:38.474Z,23.17
2022-08-19T07:25:07.237Z,23.02
2022-08-19T07:27:34.858Z,23.20
2022-08-19T07:30:01.904Z,23.15
2022-08-19T07:32:28.409Z,23.22
2022-08-19T07:34:56.381Z,23.31
2022-08-19T07:37:24.190Z,23.20
2022-08-19T07:39:50.663Z,23.33
2022-08-19T07:42:18.077Z,23.07
2022-08-19T07:44:50.367Z,23.03
2022-08-19T07:47:50.025Z,23.02
2022-08-19T07:50:08.936Z,22.71
2022-08-19T07:52:36.868Z,22.98
2022-08-19T07:55:05.695Z,22.79
2022-08-19T07:57:32.477Z,22.79
2022-08-19T08:00:00.119Z,23.05
2022-08-19T08:02:27.532Z,23.19
2022-08-19T08:05:12.703Z,23.13
2022-08-19T08:07:58.560Z,23.15
2022-08-19T08:10:25.719Z,22.92
2022-08-19T08:13:08.916Z,23.25
2022-08-19T08:15:42.109Z,23.12
2022-08-19T08:18:09.862Z,22.89
2022-08-19T08:20:36.427Z,22.93
2022-08-19T08:23:21.923Z,22.89
2022-08-19T08:25:49.933Z,22.95
2022-08-19T08:28:17.390Z,22.85
2022-08-19T08:30:46.643Z,22.83
2022-08-19T08:33:13.373Z,22.87
2022-08-19T08:35:43.160Z,22.91
2022-08-19T08:38:09.690Z,22.99
2022-08-19T08:41:07.890Z,22.72
2022-08-19T08:43:38.434Z,22.92
2022-08-19T08:46:30.705Z,22.86
2022-08-19T08:49:11.496Z,22.92
2022-08-19T08:52:17.287Z,22.97
2022-08-19T08:54:54.728Z,23.06
2022-08-19T08:57:55.622Z,23.10
2022-08-19T09:02:51.612Z,23.14
2022-08-19T09:05:22.237Z,23.35
2022-08-19T09:08:17.076Z,23.80
2022-08-19T09:10:54.964Z,24.03
2022-08-19T09:13:38.855Z,23.28
2022-08-19T09:16:15.156Z,23.97
2022-08-19T09:18:53.813Z,23.59
2022-08-19T09:21:25.977Z,24.00
2022-08-19T09:23:58.427Z,23.72
2022-08-19T09:26:35.218Z,23.73
2022-08-19T09:29:14.007Z,23.73
2022-08-19T09:31:40.558Z,24.05
2022-08-19T09:34:07.068Z,24.40
2022-08-19T09:36:37.090Z,24.31
2022-08-19T09:39:16.167Z,24.45
2022-08-19T09:41:47.569Z,24.07
2022-08-19T09:44:16.628Z,24.23
2022-08-19T09:46:44.597Z,24.31
2022-08-19T09:49:11.617Z,24.27
2022-08-19T09:51:39.891Z,24.69
2022-08-19T09:54:06.406Z,25.09
2022-08-19T09:56:34.091Z,25.12
2022-08-19T09:59:02.001Z,25.23
2022-08-19T10:01:31.777Z,25.35
2022-08-19T10:04:00.613Z,25.44
2022-08-19T10:06:43.846Z,24.84
2022-08-19T10:09:14.345Z,25.02
2022-08-19T10:11:49.888Z,24.97
2022-08-19T10:14:24.998Z,24.80
2022-08-19T10:16:52.389Z,24.49
2022-08-19T10:19:25.316Z,24.93
2022-08-19T10:21:53.036Z,25.04
2022-08-19T10:24:21.380Z,25.07
2022-08-19T10:26:55.969Z,24.76
2022-08-19T10:29:32.748Z,24.90
2022-08-19T10:32:02.884Z,25.16
2022-08-19T10:34:30.852Z,24.93
2022-08-19T10:37:01.112Z,24.81
2022-08-19T10:39:32.780Z,24.94
2022-08-19T10:42:11.683Z,25.18
2022-08-19T10:44:38.302Z,24.45
2022-08-19T10:47:17.357Z,24.78
2022-08-19T10:50:11.773Z,25.00
2022-08-19T10:52:39.222Z,25.09
2022-08-19T10:55:26.349Z,24.85
2022-08-19T10:58:03.652Z,24.99
2022-08-19T11:00:32.383Z,25.13
2022-08-19T11:02:59.116Z,25.33
2022-08-19T11:05:25.569Z,24.94
2022-08-19T11:07:52.774Z,25.03
2022-08-19T11:10:21.879Z,25.24
2022-08-19T11:12:49.129Z,25.21
2022-08-19T11:15:16.846Z,25.14
2022-08-19T11:17:44.497Z,24.94
2022-08-19T11:20:15.739Z,25.14
2022-08-19T11:22:43.474Z,25.14
2022-08-19T11:25:11.914Z,24.94
2022-08-19T11:27:42.986Z,25.17
2022-08-19T11:30:12.957Z,25.50
2022-08-19T11:32:43.432Z,25.72
2022-08-19T11:35:12.323Z,25.57
2022-08-19T11:37:39.048Z,25.67
2022-08-19T11:40:07.144Z,25.64
2022-08-19T11:42:52.514Z,25.92
2022-08-19T11:45:19.454Z,26.19
2022-08-19T11:47:47.303Z,25.95
2022-08-19T11:50:14.478Z,25.75
2022-08-19T11:52:41.553Z,27.25
2022-08-19T11:55:08.998Z,26.61
2022-08-19T11:57:35.600Z,27.91
2022-08-19T12:00:02.577Z,28.46
2022-08-19T12:02:28.977Z,28.64
2022-08-19T12:04:55.764Z,27.23
2022-08-19T12:07:23.324Z,26.55
2022-08-19T12:09:49.958Z,28.53
2022-08-19T12:12:16.529Z,28.41
2022-08-19T12:14:43.042Z,28.08
2022-08-19T12:17:10.432Z,28.94
2022-08-19T12:19:38.096Z,29.17
2022-08-19T12:22:04.607Z,30.08
2022-08-19T12:24:32.958Z,29.40
2022-08-19T12:27:03.139Z,30.06
2022-08-19T12:29:30.840Z,29.75
2022-08-19T12:32:03.893Z,29.33
2022-08-19T12:34:31.561Z,29.22
2022-08-19T12:37:04.656Z,28.78
2022-08-19T12:39:32.298Z,29.33
2022-08-19T12:41:58.974Z,29.52
2022-08-19T12:44:29.104Z,29.07
2022-08-19T12:46:59.747Z,28.11
2022-08-19T12:49:53.978Z,29.09
2022-08-19T12:52:23.207Z,28.46
2022-08-19T12:54:53.749Z,28.76
2022-08-19T12:57:31.822Z,28.39
2022-08-19T12:59:59.370Z,27.42
2022-08-19T13:02:25.848Z,27.35
2022-08-19T13:04:52.354Z,27.77
2022-08-19T13:07:18.941Z,28.16
2022-08-19T13:09:45.632Z,28.63
2022-08-19T13:12:14.028Z,29.00
2022-08-19T13:14:42.002Z,29.13
2022-08-19T13:17:10.064Z,29.18
2022-08-19T13:19:41.005Z,29.06
2022-08-19T13:22:13.173Z,29.57
2022-08-19T13:24:46.413Z,29.30
2022-08-19T13:27:14.036Z,29.56
2022-08-19T13:30:00.732Z,29.84
2022-08-19T13:32:45.853Z,29.70
2022-08-19T13:35:16.757Z,28.95
2022-08-19T13:37:43.769Z,29.46
2022-08-19T13:40:16.578Z,28.92
2022-08-19T13:42:44.658Z,29.08
2022-08-19T13:45:12.686Z,29.30
2022-08-19T13:47:45.805Z,28.69
2022-08-19T13:50:14.070Z,29.24
2022-08-19T13:52:40.683Z,29.49
2022-08-19T13:55:08.850Z,29.35
2022-08-19T13:57:36.291Z,28.86
2022-08-19T14:00:05.456Z,28.71
2022-08-19T14:02:31.913Z,28.55
2022-08-19T14:04:59.315Z,28.18
2022-08-19T14:07:26.203Z,28.48
2022-08-19T14:09:52.898Z,28.58
2022-08-19T14:12:28.186Z,28.71
2022-08-19T14:14:55.647Z,28.90
2022-08-19T14:17:22.485Z,28.76
2022-08-19T14:19:49.056Z,28.12
2022-08-19T14:22:15.588Z,28.79
2022-08-19T14:24:49.339Z,29.18
2022-08-19T14:27:15.807Z,29.02
2022-08-19T14:29:42.344Z,28.86
2022-08-19T14:32:08.871Z,29.22
2022-08-19T14:34:42.761Z,29.10
2022-08-19T14:37:14.472Z,29.15
2022-08-19T14:39:44.740Z,28.83
2022-08-19T14:42:12.541Z,28.30
2022-08-19T14:44:38.953Z,28.59
2022-08-19T14:47:05.592Z,28.73
2022-08-19T14:49:35.282Z,28.58
2022-08-19T14:52:08.267Z,28.47
2022-08-19T14:54:34.868Z,28.29
2022-08-19T14:57:01.324Z,28.56
2022-08-19T14:59:27.869Z,28.34
2022-08-19T15:01:54.351Z,28.72
2022-08-19T15:04:21.208Z,28.26
2022-08-19T15:06:47.640Z,28.36
2022-08-19T15:09:14.074Z,28.29
2022-08-19T15:11:40.499Z,28.31
2022-08-19T15:14:07.110Z,28.33
2022-08-19T15:16:33.721Z,28.37
2022-08-19T15:19:03.481Z,28.05
2022-08-19T15:21:31.047Z,28.32
2022-08-19T15:23:58.901Z,28.15
2022-08-19T15:26:28.476Z,28.03
2022-08-19T15:28:54.956Z,28.01
2022-08-19T15:31:25.637Z,27.99
2022-08-19T15:33:58.336Z,27.94
2022-08-19T15:36:26.222Z,27.63
2022-08-19T15:38:53.456Z,27.85
2022-08-19T15:41:25.565Z,27.69
2022-08-19T15:44:04.629Z,27.59
2022-08-19T15:46:33.574Z,27.73
2022-08-19T15:49:00.624Z,27.72
2022-08-19T15:51:30.338Z,27.69
2022-08-19T15:53:57.592Z,27.73
2022-08-19T15:56:27.192Z,27.53
2022-08-19T15:59:12.595Z,27.68
2022-08-19T16:01:57.452Z,27.56
2022-08-19T16:04:42.723Z,27.63
2022-08-19T16:07:10.574Z,27.50
2022-08-19T16:09:37.083Z,27.46
2022-08-19T16:12:05.872Z,27.41
2022-08-19T16:14:35.296Z,27.35
2022-08-19T16:17:02.022Z,27.25
2022-08-19T16:19:28.461Z,27.36
2022-08-19T16:21:56.780Z,27.29
2022-08-19T16:24:26.128Z,27.27
2022-08-19T16:26:52.591Z,27.28
2022-08-19T16:29:33.288Z,27.34
2022-08-19T16:32:05.710Z,27.31
2022-08-19T16:34:33.716Z,27.22
2022-08-19T16:37:00.474Z,27.18
2022-08-19T16:39:26.941Z,27.09
2022-08-19T16:41:53.395Z,27.08
2022-08-19T16:44:20.894Z,26.93
2022-08-19T16:46:58.627Z,26.78
2022-08-19T16:49:52.308Z,26.54
2022-08-19T16:52:17.844Z,26.68
2022-08-19T16:54:44.712Z,26.46
2022-08-19T16:57:12.320Z,26.69
2022-08-19T16:59:48.275Z,26.50
2022-08-19T17:02:18.111Z,26.40
2022-08-19T17:04:57.468Z,26.29
2022-08-19T17:07:29.381Z,26.19
2022-08-19T17:09:59.787Z,26.23
2022-08-19T17:12:30.643Z,26.09
2022-08-19T17:14:59.421Z,26.12
2022-08-19T17:17:29.281Z,26.19
2022-08-19T17:19:56.471Z,26.11
2022-08-19T17:22:22.881Z,26.02
2022-08-19T17:24:49.437Z,26.04
2022-08-19T17:27:19.811Z,25.82
2022-08-19T17:29:47.172Z,25.94
2022-08-19T17:32:15.294Z,25.89
2022-08-19T17:34:41.887Z,25.90
2022-08-19T17:37:09.636Z,25.70
2022-08-19T17:39:39.737Z,25.71
2022-08-19T17:42:08.238Z,25.72
2022-08-19T17:44:36.925Z,25.69
2022-08-19T17:47:04.415Z,25.71
2022-08-19T17:49:33.310Z,25.61
2022-08-19T17:52:01.061Z,25.61
2022-08-19T17:54:33.842Z,25.52
2022-08-19T17:57:01.268Z,25.55
2022-08-19T17:59:28.492Z,25.43
2022-08-19T18:01:57.409Z,25.46
2022-08-19T18:04:25.663Z,25.38
2022-08-19T18:06:55.434Z,25.32
2022-08-19T18:09:28.687Z,25.18
2022-08-19T18:12:06.515Z,25.21
2022-08-19T18:14:38.374Z,25.03
2022-08-19T18:17:11.228Z,24.97
2022-08-19T18:19:41.364Z,24.96
2022-08-19T18:22:10.881Z,24.78
2022-08-19T18:24:41.627Z,24.52
2022-08-19T18:27:08.211Z,24.19
2022-08-19T18:29:38.075Z,23.89
2022-08-19T18:32:05.297Z,23.72
2022-08-19T18:34:31.781Z,23.47
2022-08-19T18:36:58.171Z,23.33
2022-08-19T18:39:48.322Z,23.29
2022-08-19T18:42:35.025Z,23.05
2022-08-19T18:45:20.642Z,23.00
2022-08-19T18:48:06.803Z,23.02
2022-08-19T18:50:53.904Z,23.12
2022-08-19T18:53:22.077Z,23.02
2022-08-19T18:55:55.153Z,22.72
2022-08-19T18:58:28.287Z,22.63
2022-08-19T19:00:57.062Z,22.44
2022-08-19T19:03:25.289Z,22.44
2022-08-19T19:05:55.814Z,22.24
2022-08-19T19:08:27.221Z,22.21
2022-08-19T19:10:54.672Z,22.04
2022-08-19T19:13:21.069Z,21.94
2022-08-19T19:15:47.517Z,21.90
2022-08-19T19:18:13.963Z,21.69
2022-08-19T19:20:41.192Z,21.78
2022-08-19T19:23:08.625Z,21.60
2022-08-19T19:25:44.773Z,21.67
2022-08-19T19:28:28.718Z,21.64
2022-08-19T19:31:00.399Z,21.64
2022-08-19T19:33:28.457Z,21.61
2022-08-19T19:35:55.914Z,21.52
2022-08-19T19:38:24.736Z,21.38
2022-08-19T19:40:51.468Z,21.44
2022-08-19T19:43:21.248Z,21.30
2022-08-19T19:45:48.688Z,21.37
2022-08-19T19:48:16.292Z,21.25
2022-08-19T19:50:44.834Z,21.16
2022-08-19T19:53:11.410Z,21.28
2022-08-19T19:55:41.262Z,21.17
2022-08-19T19:58:08.472Z,21.16
2022-08-19T20:00:36.291Z,21.07
2022-08-19T20:03:02.995Z,20.91
2022-08-19T20:05:29.587Z,20.88
2022-08-19T20:08:15.173Z,20.78
2022-08-19T20:10:42.858Z,20.77
2022-08-19T20:13:12.049Z,20.78
2022-08-19T20:15:42.574Z,20.76
2022-08-19T20:18:10.891Z,20.75
2022-08-19T20:20:39.050Z,20.76
2022-08-19T20:23:06.959Z,20.68
2022-08-19T20:25:34.381Z,20.57
2022-08-19T20:28:01.421Z,20.56
2022-08-19T20:30:29.754Z,20.63
2022-08-19T20:32:59.469Z,20.65
2022-08-19T20:35:26.718Z,20.68
2022-08-19T20:37:57.994Z,20.72
2022-08-19T20:40:26.365Z,20.80
2022-08-19T20:42:54.425Z,20.55
2022-08-19T20:45:32.371Z,20.43
2022-08-19T20:48:02.397Z,20.38
2022-08-19T20:50:30.106Z,20.27
2022-08-19T20:52:57.177Z,20.28
2022-08-19T20:55:23.678Z,20.31
2022-08-19T20:57:50.234Z,20.33
2022-08-19T21:00:16.831Z,20.27
2022-08-19T21:02:46.961Z,20.18
2022-08-19T21:05:15.548Z,20.13
2022-08-19T21:07:42.644Z,20.08
2022-08-19T21:10:13.562Z,20.02
2022-08-19T21:12:43.762Z,19.89
2022-08-19T21:15:10.512Z,19.84
2022-08-19T21:17:42.628Z,19.78
2022-08-19T21:20:09.968Z,19.82
2022-08-19T21:22:36.541Z,19.79
2022-08-19T21:25:03.103Z,19.81
2022-08-19T21:27:30.078Z,19.76
2022-08-19T21:29:56.727Z,19.71
2022-08-19T21:32:23.939Z,19.69
2022-08-19T21:34:52.658Z,19.74
2022-08-19T21:37:24.964Z,19.63
2022-08-19T21:39:56.703Z,19.71
2022-08-19T21:42:24.083Z,19.72
2022-08-19T21:44:50.686Z,19.74
2022-08-19T21:47:17.204Z,19.64
2022-08-19T21:49:44.017Z,19.69
2022-08-19T21:52:10.648Z,19.55
2022-08-19T21:54:38.122Z,19.44
2022-08-19T21:57:10.646Z,19.37
2022-08-19T21:59:43.640Z,19.35
2022-08-19T22:02:22.025Z,19.30
2022-08-19T22:04:52.802Z,19.29
2022-08-19T22:07:22.016Z,19.23
2022-08-19T22:09:50.792Z,19.19
2022-08-19T22:12:29.364Z,19.06
2022-08-19T22:14:59.429Z,18.98
2022-08-19T22:17:28.007Z,18.82
2022-08-19T22:19:56.169Z,18.91
2022-08-19T22:22:25.759Z,18.74
2022-08-19T22:24:55.077Z,18.75
2022-08-19T22:27:21.572Z,18.66
2022-08-19T22:29:52.327Z,18.63
2022-08-19T22:32:28.611Z,18.61
2022-08-19T22:34:58.131Z,18.65
2022-08-19T22:37:24.987Z,18.58
2022-08-19T22:39:51.441Z,18.57
2022-08-19T22:42:20.127Z,18.64
2022-08-19T22:44:46.860Z,18.63
2022-08-19T22:47:13.552Z,18.58
2022-08-19T22:49:40.660Z,18.53
2022-08-19T22:52:19.338Z,18.49
2022-08-19T22:54:47.955Z,18.48
2022-08-19T22:57:15.202Z,18.46
2022-08-19T22:59:41.851Z,18.41
2022-08-19T23:02:09.575Z,18.46
2022-08-19T23:04:36.862Z,18.32
2022-08-19T23:07:05.483Z,18.31
2022-08-19T23:09:31.946Z,18.34
2022-08-19T23:12:00.601Z,18.27
2022-08-19T23:14:27.779Z,18.33
2022-08-19T23:16:59.708Z,18.36
2022-08-19T23:19:27.102Z,18.33
2022-08-19T23:21:53.636Z,18.26
2022-08-19T23:24:20.055Z,18.06
2022-08-19T23:27:05.769Z,18.09
2022-08-19T23:29:51.637Z,18.10
2022-08-19T23:32:20.820Z,18.13
2022-08-19T23:34:47.675Z,18.23
2022-08-19T23:37:15.088Z,18.07
2022-08-19T23:39:42.035Z,18.06
2022-08-19T23:42:11.498Z,18.00
2022-08-19T23:44:51.492Z,17.80
2022-08-19T23:47:19.911Z,17.80
2022-08-19T23:49:47.553Z,17.77
2022-08-19T23:52:13.974Z,17.86
2022-08-19T23:54:43.540Z,17.87
2022-08-19T23:57:13.752Z,17.83
2022-08-19T23:59:42.392Z,17.75
